Time;durP1;ratioP1;P1;durP2;ratioP2;P2;SDS_P1;SDS_P2;PMS_P1;PMS_P2;Temp;Humidity;BMP_temperature;BMP_pressure;BME280_temperature;BME280_humidity;BME280_pressure;Samples;Min_cycle;Max_cycle;Signal;HPM_P1;HPM_P2
2022/08/22 00:02:20;;;;;;;;;;;;;;;;;;5114686;28;19920;-85
2022/08/22 00:04:51;;;;;;;;;;;;;;;;;;5114736;28;19994;-85
2022/08/22 00:07:23;;;;;;;;;;;;;;;;;;5114613;28;19939;-85
2022/08/22 00:09:48;;;;;;;;;;;;;;;;;;5096627;28;19916;-85
2022/08/22 00:12:19;;;;;;;;;;;;;;;;;;5114629;28;19916;-85
2022/08/22 00:14:50;;;;;;;;;;;;;;;;;;5098170;28;19915;-85
2022/08/22 00:17:30;;;;;;;;;;;;;;;;;;5100871;28;19915;-85
2022/08/22 00:19:56;;;;;;;;;;;;;;;;;;5118569;28;19916;-85
2022/08/22 00:22:25;;;;;;;;;;;;;;;;;;5104032;28;19923;-85
2022/08/22 00:24:52;;;;;;;;;;;;;;;;;;5100389;28;20226;-85
2022/08/22 00:27:22;;;;;;;;;;;;;;;;;;5100432;28;19920;-85
2022/08/22 00:29:51;;;;;;;;;;;;;;;;;;5083744;28;20010;-85
2022/08/22 00:32:19;;;;;;;;;;;;;;;;;;5100184;28;19916;-84
2022/08/22 00:34:47;;;;;;;;;;;;;;;;;;5100323;28;19915;-85
2022/08/22 00:37:42;;;;;;;;;;;;;;;;;;5118119;28;19916;-84
2022/08/22 00:40:11;;;;;;;;;;;;;;;;;;5096244;28;19920;-85
2022/08/22 00:42:43;;;;;;;;;;;;;;;;;;5099439;28;19923;-85
2022/08/22 00:45:27;;;;;;;;;;;;;;;;;;5118215;28;19938;-85
2022/08/22 00:48:01;;;;;;;;;;;;;;;;;;5100174;28;19916;-85
2022/08/22 00:50:39;;;;;;;;;;;;;;;;;;5117857;28;20323;-85
2022/08/22 00:53:10;;;;;;;;;;;;;;;;;;5099555;28;19923;-85
2022/08/22 00:55:47;;;;;;;;;;;;;;;;;;5099813;28;20238;-84
2022/08/22 00:58:25;;;;;;;;;;;;;;;;;;5117766;28;19915;-83
2022/08/22 01:00:51;;;;;;;;;;;;;;;;;;5099466;28;19920;-85
2022/08/22 01:03:16;;;;;;;;;;;;;;;;;;5083133;28;20002;-84
2022/08/22 01:06:01;;;;;;;;;;;;;;;;;;5117562;28;19955;-84
2022/08/22 01:08:38;;;;;;;;;;;;;;;;;;5082360;28;19995;-84
2022/08/22 01:11:09;;;;;;;;;;;;;;;;;;5099371;28;20257;-84
2022/08/22 01:13:43;;;;;;;;;;;;;;;;;;5117416;28;20426;-85
2022/08/22 01:16:17;;;;;;;;;;;;;;;;;;5082541;28;19916;-84
2022/08/22 01:19:12;;;;;;;;;;;;;;;;;;5099338;28;19912;-83
2022/08/22 01:21:40;;;;;;;;;;;;;;;;;;5027018;28;19917;-84
2022/08/22 01:24:30;;;;;;;;;;;;;;;;;;5117130;28;19969;-85
2022/08/22 01:27:16;;;;;;;;;;;;;;;;;;5080783;28;20261;-85
2022/08/22 01:30:07;;;;;;;;;;;;;;;;;;5098703;28;20014;-84
2022/08/22 01:32:56;;;;;;;;;;;;;;;;;;5112062;28;19916;-84
2022/08/22 01:35:25;;;;;;;;;;;;;;;;;;5082377;28;19915;-85
2022/08/22 01:37:50;;;;;;;;;;;;;;;;;;5099155;28;20424;-85
2022/08/22 01:40:34;;;;;;;;;;;;;;;;;;5120654;28;19939;-85
2022/08/22 01:43:05;;;;;;;;;;;;;;;;;;5102825;28;20310;-85
2022/08/22 01:45:30;;;;;;;;;;;;;;;;;;5130378;28;19952;-85
2022/08/22 01:48:19;;;;;;;;;;;;;;;;;;5129587;28;19938;-85
2022/08/22 01:50:46;;;;;;;;;;;;;;;;;;5116572;28;19920;-85
2022/08/22 01:53:11;;;;;;;;;;;;;;;;;;5106586;28;20608;-85
2022/08/22 01:56:00;;;;;;;;;;;;;;;;;;5135291;28;20234;-84
2022/08/22 01:58:26;;;;;;;;;;;;;;;;;;5119108;28;19904;-84
2022/08/22 02:01:02;;;;;;;;;;;;;;;;;;5103538;28;19916;-84
2022/08/22 02:03:35;;;;;;;;;;;;;;;;;;5114254;28;19919;-85
2022/08/22 02:06:06;;;;;;;;;;;;;;;;;;5108735;28;20238;-85
2022/08/22 02:08:54;;;;;;;;;;;;;;;;;;5098038;28;19935;-85
2022/08/22 02:11:39;;;;;;;;;;;;;;;;;;5080630;28;19974;-84
2022/08/22 02:14:20;;;;;;;;;;;;;;;;;;5080741;28;19918;-84
2022/08/22 02:16:47;;;;;;;;;;;;;;;;;;5097990;28;19915;-84
2022/08/22 02:19:15;;;;;;;;;;;;;;;;;;5097600;28;19920;-84
2022/08/22 02:21:43;;;;;;;;;;;;;;;;;;5115835;28;20299;-84
2022/08/22 02:24:23;;;;;;;;;;;;;;;;;;5115483;28;20379;-85
2022/08/22 02:27:07;;;;;;;;;;;;;;;;;;5097719;28;19916;-84
2022/08/22 02:29:34;;;;;;;;;;;;;;;;;;5115885;28;19973;-83
2022/08/22 02:32:06;;;;;;;;;;;;;;;;;;5097437;28;19919;-85
2022/08/22 02:34:39;;;;;;;;;;;;;;;;;;5097730;28;20556;-85
2022/08/22 02:37:09;;;;;;;;;;;;;;;;;;5097612;28;19939;-85
2022/08/22 02:39:43;;;;;;;;;;;;;;;;;;5097094;28;19978;-85
2022/08/22 02:42:27;;;;;;;;;;;;;;;;;;5097441;28;20006;-84
2022/08/22 02:45:05;;;;;;;;;;;;;;;;;;5118907;28;19916;-84
2022/08/22 02:47:40;;;;;;;;;;;;;;;;;;5081165;28;19916;-84
2022/08/22 02:50:11;;;;;;;;;;;;;;;;;;5117591;28;19963;-84
2022/08/22 02:52:50;;;;;;;;;;;;;;;;;;5117614;28;19919;-83
2022/08/22 02:55:20;;;;;;;;;;;;;;;;;;5097266;28;19972;-84
2022/08/22 02:58:05;;;;;;;;;;;;;;;;;;5097120;28;19920;-85
2022/08/22 03:00:40;;;;;;;;;;;;;;;;;;5096486;28;19920;-85
2022/08/22 03:03:20;;;;;;;;;;;;;;;;;;5096959;28;20002;-84
2022/08/22 03:05:56;;;;;;;;;;;;;;;;;;5097025;28;19915;-84
2022/08/22 03:08:32;;;;;;;;;;;;;;;;;;5097249;28;19959;-85
2022/08/22 03:11:01;;;;;;;;;;;;;;;;;;5080635;28;20213;-83
2022/08/22 03:13:53;;;;;;;;;;;;;;;;;;5096774;28;19915;-84
2022/08/22 03:16:25;;;;;;;;;;;;;;;;;;5110446;28;20383;-84
2022/08/22 03:18:59;;;;;;;;;;;;;;;;;;5096668;28;19972;-84
2022/08/22 03:21:30;;;;;;;;;;;;;;;;;;5115183;28;19999;-85
2022/08/22 03:23:57;;;;;;;;;;;;;;;;;;5096699;28;20388;-85
2022/08/22 03:26:25;;;;;;;;;;;;;;;;;;5114775;28;19916;-84
2022/08/22 03:28:52;;;;;;;;;;;;;;;;;;5114926;28;20342;-85
2022/08/22 03:31:18;;;;;;;;;;;;;;;;;;5096749;28;19923;-83
2022/08/22 03:33:44;;;;;;;;;;;;;;;;;;5114985;28;19963;-85
2022/08/22 03:36:15;;;;;;;;;;;;;;;;;;5096617;28;20065;-84
2022/08/22 03:38:59;;;;;;;;;;;;;;;;;;5114750;28;19942;-84
2022/08/22 03:41:45;;;;;;;;;;;;;;;;;;5114584;28;20332;-85
2022/08/22 03:44:19;;;;;;;;;;;;;;;;;;5114433;28;19923;-84
2022/08/22 03:46:47;;;;;;;;;;;;;;;;;;5096442;28;20006;-84
2022/08/22 03:49:16;;;;;;;;;;;;;;;;;;5115631;28;19915;-85
2022/08/22 03:51:46;;;;;;;;;;;;;;;;;;5118523;28;19920;-84
2022/08/22 03:54:14;;;;;;;;;;;;;;;;;;5084152;28;19998;-84
2022/08/22 03:56:39;;;;;;;;;;;;;;;;;;5100295;28;19966;-84
2022/08/22 03:59:07;;;;;;;;;;;;;;;;;;5118863;28;20345;-84
2022/08/22 04:01:40;;;;;;;;;;;;;;;;;;5118430;28;19920;-84
2022/08/22 04:04:27;;;;;;;;;;;;;;;;;;5100254;28;20310;-84
2022/08/22 04:07:16;;;;;;;;;;;;;;;;;;5100101;28;19915;-84
2022/08/22 04:09:50;;;;;;;;;;;;;;;;;;5071049;28;19939;-85
2022/08/22 04:12:36;;;;;;;;;;;;;;;;;;5118192;28;19911;-84
2022/08/22 04:15:08;;;;;;;;;;;;;;;;;;5086691;28;19923;-85
2022/08/22 04:17:42;;;;;;;;;;;;;;;;;;5100294;28;20006;-84
2022/08/22 04:20:08;;;;;;;;;;;;;;;;;;5118232;28;19912;-85
2022/08/22 04:22:36;;;;;;;;;;;;;;;;;;5118081;28;19926;-85
2022/08/22 04:25:05;;;;;;;;;;;;;;;;;;5118133;28;19978;-84
2022/08/22 04:27:48;;;;;;;;;;;;;;;;;;5100205;28;19943;-84
2022/08/22 04:30:14;;;;;;;;;;;;;;;;;;5118734;28;20508;-85
2022/08/22 04:32:40;;;;;;;;;;;;;;;;;;5117894;28;19972;-83
2022/08/22 04:35:07;;;;;;;;;;;;;;;;;;5099488;28;20337;-84
2022/08/22 04:37:52;;;;;;;;;;;;;;;;;;5118006;28;19920;-85
2022/08/22 04:40:35;;;;;;;;;;;;;;;;;;5082960;28;20328;-84
2022/08/22 04:43:08;;;;;;;;;;;;;;;;;;5082835;28;19916;-84
2022/08/22 04:45:38;;;;;;;;;;;;;;;;;;5082887;28;19916;-85
2022/08/22 04:48:09;;;;;;;;;;;;;;;;;;5099515;28;19938;-84
2022/08/22 04:50:37;;;;;;;;;;;;;;;;;;5099290;28;19923;-83
2022/08/22 04:53:08;;;;;;;;;;;;;;;;;;5117655;28;19965;-84
2022/08/22 04:55:52;;;;;;;;;;;;;;;;;;5117602;28;20396;-82
2022/08/22 04:58:18;;;;;;;;;;;;;;;;;;5099441;28;19920;-83
2022/08/22 05:00:48;;;;;;;;;;;;;;;;;;5099229;28;19927;-83
2022/08/22 05:03:14;;;;;;;;;;;;;;;;;;5099763;28;19915;-84
2022/08/22 05:05:39;;;;;;;;;;;;;;;;;;5082126;28;19920;-83
2022/08/22 05:08:04;;;;;;;;;;;;;;;;;;5082342;28;20222;-83
2022/08/22 05:10:37;;;;;;;;;;;;;;;;;;5082395;28;20398;-84
2022/08/22 05:13:16;;;;;;;;;;;;;;;;;;5081944;28;19968;-84
2022/08/22 05:15:43;;;;;;;;;;;;;;;;;;5082775;28;19923;-83
2022/08/22 05:18:10;;;;;;;;;;;;;;;;;;5099421;28;19912;-84
2022/08/22 05:20:35;;;;;;;;;;;;;;;;;;5119883;28;19922;-84
2022/08/22 05:23:03;;;;;;;;;;;;;;;;;;5098813;28;19927;-85
2022/08/22 05:25:29;;;;;;;;;;;;;;;;;;5098976;28;19916;-84
2022/08/22 05:28:10;;;;;;;;;;;;;;;;;;5099151;28;20459;-83
2022/08/22 05:30:36;;;;;;;;;;;;;;;;;;5082388;28;19916;-84
2022/08/22 05:33:11;;;;;;;;;;;;;;;;;;5081857;28;19916;-84
2022/08/22 05:35:38;;;;;;;;;;;;;;;;;;5099198;28;19920;-84
2022/08/22 05:38:04;;;;;;;;;;;;;;;;;;5098625;28;19930;-83
2022/08/22 05:40:29;;;;;;;;;;;;;;;;;;5098957;28;19919;-84
2022/08/22 05:42:55;;;;;;;;;;;;;;;;;;5098278;28;20326;-84
2022/08/22 05:45:20;;;;;;;;;;;;;;;;;;5081363;28;19973;-83
2022/08/22 05:47:50;;;;;;;;;;;;;;;;;;5098106;28;19998;-83
2022/08/22 05:50:29;;;;;;;;;;;;;;;;;;5081606;28;20038;-84
2022/08/22 05:52:57;;;;;;;;;;;;;;;;;;5081535;28;19920;-83
2022/08/22 05:55:31;;;;;;;;;;;;;;;;;;5116358;28;20357;-83
2022/08/22 05:58:12;;;;;;;;;;;;;;;;;;5081994;28;19916;-83
2022/08/22 06:00:39;;;;;;;;;;;;;;;;;;5116420;28;19924;-84
2022/08/22 06:03:13;;;;;;;;;;;;;;;;;;5097651;28;19990;-83
2022/08/22 06:05:40;;;;;;;;;;;;;;;;;;5116212;28;19916;-83
2022/08/22 06:08:23;;;;;;;;;;;;;;;;;;5081317;28;20007;-83
2022/08/22 06:10:55;;;;;;;;;;;;;;;;;;5098317;28;19962;-84
2022/08/22 06:13:24;;;;;;;;;;;;;;;;;;5097573;28;19920;-84
2022/08/22 06:16:09;;;;;;;;;;;;;;;;;;5080944;28;19966;-83
2022/08/22 06:18:34;;;;;;;;;;;;;;;;;;5117695;28;20341;-83
2022/08/22 06:21:01;;;;;;;;;;;;;;;;;;5081091;28;19926;-83
2022/08/22 06:23:41;;;;;;;;;;;;;;;;;;5098155;28;19916;-77
2022/08/22 06:26:10;;;;;;;;;;;;;;;;;;5097672;28;20017;-78
2022/08/22 06:28:40;;;;;;;;;;;;;;;;;;5098048;28;20310;-78
2022/08/22 06:31:06;;;;;;;;;;;;;;;;;;5097182;28;19920;-77
2022/08/22 06:33:33;;;;;;;;;;;;;;;;;;5097590;28;19915;-78
2022/08/22 06:38:54;;;;;;;;;;;;;;;;;;5100025;28;19922;-76
2022/08/22 06:41:20;;;;;;;;;;;;;;;;;;5115413;28;19919;-77
2022/08/22 06:43:46;;;;;;;;;;;;;;;;;;5097545;28;19922;-77
2022/08/22 06:46:11;;;;;;;;;;;;;;;;;;5096772;28;20002;-76
2022/08/22 06:48:37;;;;;;;;;;;;;;;;;;5097070;28;20347;-77
2022/08/22 06:51:03;;;;;;;;;;;;;;;;;;5097411;28;19923;-77
2022/08/22 06:53:33;;;;;;;;;;;;;;;;;;5080138;28;19961;-77
2022/08/22 06:56:01;;;;;;;;;;;;;;;;;;5096942;28;19916;-77
2022/08/22 06:58:28;;;;;;;;;;;;;;;;;;5097281;28;19916;-77
2022/08/22 07:00:54;;;;;;;;;;;;;;;;;;5096515;28;19996;-78
2022/08/22 07:03:22;;;;;;;;;;;;;;;;;;5096792;28;19916;-76
2022/08/22 07:05:48;;;;;;;;;;;;;;;;;;5115677;28;19915;-77
2022/08/22 07:08:14;;;;;;;;;;;;;;;;;;5097253;28;19922;-76
2022/08/22 07:10:43;;;;;;;;;;;;;;;;;;5096783;28;20257;-77
2022/08/22 07:13:12;;;;;;;;;;;;;;;;;;5097072;28;19916;-76
2022/08/22 07:15:39;;;;;;;;;;;;;;;;;;5096531;28;19915;-77
2022/08/22 07:18:06;;;;;;;;;;;;;;;;;;5097074;28;19991;-77
2022/08/22 07:20:37;;;;;;;;;;;;;;;;;;5097249;28;19922;-77
2022/08/22 07:23:02;;;;;;;;;;;;;;;;;;5114531;28;19923;-76
2022/08/22 07:25:28;;;;;;;;;;;;;;;;;;5114576;28;19916;-77
2022/08/22 07:28:03;;;;;;;;;;;;;;;;;;5096769;28;20307;-77
2022/08/22 07:30:40;;;;;;;;;;;;;;;;;;5079503;28;20333;-76
2022/08/22 07:33:08;;;;;;;;;;;;;;;;;;5114692;28;20263;-76
2022/08/22 07:35:40;;;;;;;;;;;;;;;;;;5096558;28;20270;-77
2022/08/22 07:38:36;;;;;;;;;;;;;;;;;;5096631;28;19912;-78
2022/08/22 07:41:04;;;;;;;;;;;;;;;;;;5079304;28;20313;-78
2022/08/22 07:43:44;;;;;;;;;;;;;;;;;;5095841;28;19951;-77
2022/08/22 07:46:09;;;;;;;;;;;;;;;;;;5079908;28;19930;-79
2022/08/22 07:49:07;;;;;;;;;;;;;;;;;;5114849;28;19955;-77
2022/08/22 07:51:34;;;;;;;;;;;;;;;;;;5058501;28;19923;-77
2022/08/22 07:53:59;;;;;;;;;;;;;;;;;;5096667;28;20018;-78
2022/08/22 07:56:26;;;;;;;;;;;;;;;;;;5096481;28;19912;-79
2022/08/22 07:58:52;;;;;;;;;;;;;;;;;;5096144;28;19946;-78
2022/08/22 08:01:18;;;;;;;;;;;;;;;;;;5079394;28;20010;-76
2022/08/22 08:03:48;;;;;;;;;;;;;;;;;;5079276;28;20398;-77
2022/08/22 08:06:13;;;;;;;;;;;;;;;;;;5096381;28;19916;-79
2022/08/22 08:08:40;;;;;;;;;;;;;;;;;;5115210;28;20335;-77
2022/08/22 08:11:06;;;;;;;;;;;;;;;;;;5096726;28;19916;-78
2022/08/22 08:13:36;;;;;;;;;;;;;;;;;;5095877;28;19998;-77
2022/08/22 08:16:02;;;;;;;;;;;;;;;;;;5079572;28;19919;-80
2022/08/22 08:18:28;;;;;;;;;;;;;;;;;;5078976;28;20261;-82
2022/08/22 08:20:56;;;;;;;;;;;;;;;;;;5096456;28;19912;-77
2022/08/22 08:23:21;;;;;;;;;;;;;;;;;;5096613;28;19916;-78
2022/08/22 08:26:02;;;;;;;;;;;;;;;;;;5078916;28;19922;-77
2022/08/22 08:28:33;;;;;;;;;;;;;;;;;;5115018;28;19912;-79
2022/08/22 08:31:19;;;;;;;;;;;;;;;;;;5097465;28;19917;-79
2022/08/22 08:33:45;;;;;;;;;;;;;;;;;;5095790;28;19911;-78
2022/08/22 08:36:15;;;;;;;;;;;;;;;;;;5081569;28;20002;-78
2022/08/22 08:38:45;;;;;;;;;;;;;;;;;;5082777;28;19926;-79
2022/08/22 08:41:10;;;;;;;;;;;;;;;;;;5082302;28;19916;-81
2022/08/22 08:43:54;;;;;;;;;;;;;;;;;;5117581;28;19916;-77
2022/08/22 08:46:49;;;;;;;;;;;;;;;;;;5117741;28;20345;-79
2022/08/22 08:49:20;;;;;;;;;;;;;;;;;;5082689;28;20220;-79
2022/08/22 08:51:55;;;;;;;;;;;;;;;;;;5117549;28;19966;-81
2022/08/22 08:54:20;;;;;;;;;;;;;;;;;;5082533;28;19916;-79
2022/08/22 08:56:52;;;;;;;;;;;;;;;;;;5117246;28;20254;-79
2022/08/22 08:59:31;;;;;;;;;;;;;;;;;;5082186;28;19923;-77
2022/08/22 09:01:57;;;;;;;;;;;;;;;;;;5082273;28;19915;-77
2022/08/22 09:04:25;;;;;;;;;;;;;;;;;;5117297;28;20333;-77
2022/08/22 09:07:09;;;;;;;;;;;;;;;;;;5117040;28;20357;-77
2022/08/22 09:09:38;;;;;;;;;;;;;;;;;;5099173;28;19916;-78
2022/08/22 09:12:07;;;;;;;;;;;;;;;;;;5117446;28;19920;-78
2022/08/22 09:14:51;;;;;;;;;;;;;;;;;;5117442;28;19915;-77
2022/08/22 09:17:38;;;;;;;;;;;;;;;;;;5098847;28;19944;-76
2022/08/22 09:20:30;;;;;;;;;;;;;;;;;;5082091;28;19923;-76
2022/08/22 09:23:08;;;;;;;;;;;;;;;;;;5067595;28;19959;-76
2022/08/22 09:25:37;;;;;;;;;;;;;;;;;;5116514;28;19927;-75
2022/08/22 09:28:15;;;;;;;;;;;;;;;;;;5116836;28;20331;-76
2022/08/22 09:30:47;;;;;;;;;;;;;;;;;;5117122;28;19916;-76
2022/08/22 09:33:14;;;;;;;;;;;;;;;;;;5099454;28;19915;-76
2022/08/22 09:35:48;;;;;;;;;;;;;;;;;;5098490;28;19978;-77
2022/08/22 09:38:33;;;;;;;;;;;;;;;;;;5116641;28;19916;-76
2022/08/22 09:41:00;;;;;;;;;;;;;;;;;;5116061;28;20018;-77
2022/08/22 09:43:46;;;;;;;;;;;;;;;;;;5098139;28;19916;-77
2022/08/22 09:46:18;;;;;;;;;;;;;;;;;;5097518;28;19922;-77
2022/08/22 09:48:43;;;;;;;;;;;;;;;;;;5097760;28;19923;-77
2022/08/22 09:51:47;;;;;;;;;;;;;;;;;;5098330;28;19916;-76
2022/08/22 09:54:15;;;;;;;;;;;;;;;;;;5013516;28;19917;-77
2022/08/22 09:56:57;;;;;;;;;;;;;;;;;;5013925;28;20345;-76
2022/08/22 09:59:42;;;;;;;;;;;;;;;;;;5056646;28;20037;-76
2022/08/22 10:02:10;;;;;;;;;;;;;;;;;;5116133;28;20329;-76
2022/08/22 10:04:53;;;;;;;;;;;;;;;;;;5097742;28;19922;-76
2022/08/22 10:07:22;;;;;;;;;;;;;;;;;;5115986;28;19972;-77
2022/08/22 10:09:50;;;;;;;;;;;;;;;;;;5115485;28;19972;-78
2022/08/22 10:12:16;;;;;;;;;;;;;;;;;;5098080;28;19916;-78
2022/08/22 10:15:01;;;;;;;;;;;;;;;;;;5096979;28;19945;-77
2022/08/22 10:17:31;;;;;;;;;;;;;;;;;;5097491;28;19962;-79
2022/08/22 10:20:11;;;;;;;;;;;;;;;;;;5097337;28;19923;-78
2022/08/22 10:22:46;;;;;;;;;;;;;;;;;;5096972;28;20321;-78
2022/08/22 10:25:21;;;;;;;;;;;;;;;;;;5097745;28;19915;-77
2022/08/22 10:27:52;;;;;;;;;;;;;;;;;;5115871;28;20327;-79
2022/08/22 10:30:20;;;;;;;;;;;;;;;;;;5097613;28;19965;-78
2022/08/22 10:33:06;;;;;;;;;;;;;;;;;;5115835;28;19923;-78
2022/08/22 10:35:58;;;;;;;;;;;;;;;;;;5063761;28;19951;-78
2022/08/22 10:38:27;;;;;;;;;;;;;;;;;;5077035;28;20261;-79
2022/08/22 10:40:52;;;;;;;;;;;;;;;;;;5097391;28;20426;-77
2022/08/22 10:43:24;;;;;;;;;;;;;;;;;;5115095;28;19959;-77
2022/08/22 10:45:57;;;;;;;;;;;;;;;;;;5097700;28;19949;-78
2022/08/22 10:48:29;;;;;;;;;;;;;;;;;;5097489;28;19916;-78
2022/08/22 10:51:01;;;;;;;;;;;;;;;;;;5080187;28;19923;-77
2022/08/22 10:53:35;;;;;;;;;;;;;;;;;;5096732;28;19916;-77
2022/08/22 10:56:12;;;;;;;;;;;;;;;;;;5115720;28;19915;-78
2022/08/22 10:58:39;;;;;;;;;;;;;;;;;;5097432;28;20002;-78
2022/08/22 11:01:05;;;;;;;;;;;;;;;;;;5097072;28;20398;-77
2022/08/22 11:03:37;;;;;;;;;;;;;;;;;;5080200;28;19938;-78
2022/08/22 11:06:03;;;;;;;;;;;;;;;;;;5097013;28;19916;-78
2022/08/22 11:08:36;;;;;;;;;;;;;;;;;;5097091;28;19916;-79
2022/08/22 11:11:19;;;;;;;;;;;;;;;;;;5115028;28;20030;-78
2022/08/22 11:13:58;;;;;;;;;;;;;;;;;;5096791;28;20252;-78
2022/08/22 11:16:31;;;;;;;;;;;;;;;;;;5115403;28;20291;-77
2022/08/22 11:18:57;;;;;;;;;;;;;;;;;;5096997;28;19912;-78
2022/08/22 11:21:25;;;;;;;;;;;;;;;;;;5114580;28;19989;-77
2022/08/22 11:23:50;;;;;;;;;;;;;;;;;;5096515;28;19916;-78
2022/08/22 11:26:34;;;;;;;;;;;;;;;;;;5115087;28;19947;-77
2022/08/22 11:29:18;;;;;;;;;;;;;;;;;;5115021;28;20249;-77
2022/08/22 11:31:58;;;;;;;;;;;;;;;;;;5114750;28;19947;-77
2022/08/22 11:34:26;;;;;;;;;;;;;;;;;;5115000;28;19977;-77
2022/08/22 11:36:56;;;;;;;;;;;;;;;;;;5114515;28;19933;-76
2022/08/22 11:39:21;;;;;;;;;;;;;;;;;;5114773;28;19912;-77
2022/08/22 11:41:51;;;;;;;;;;;;;;;;;;5114704;28;19916;-76
2022/08/22 11:44:39;;;;;;;;;;;;;;;;;;5096454;28;20030;-76
2022/08/22 11:47:09;;;;;;;;;;;;;;;;;;5100949;28;19922;-76
2022/08/22 11:49:47;;;;;;;;;;;;;;;;;;5096281;28;19911;-77
2022/08/22 11:52:18;;;;;;;;;;;;;;;;;;5114523;28;19915;-76
2022/08/22 11:54:52;;;;;;;;;;;;;;;;;;5096956;28;19941;-80
2022/08/22 11:57:26;;;;;;;;;;;;;;;;;;5115305;28;19916;-76
2022/08/22 11:59:59;;;;;;;;;;;;;;;;;;5116122;28;20330;-77
2022/08/22 12:02:24;;;;;;;;;;;;;;;;;;5097505;28;19916;-76
2022/08/22 12:04:51;;;;;;;;;;;;;;;;;;5115566;28;19940;-77
2022/08/22 12:07:23;;;;;;;;;;;;;;;;;;5098021;28;19916;-77
2022/08/22 12:09:50;;;;;;;;;;;;;;;;;;5116337;28;19916;-77
2022/08/22 12:12:21;;;;;;;;;;;;;;;;;;5117657;28;19983;-78
2022/08/22 12:15:02;;;;;;;;;;;;;;;;;;5134770;28;19920;-78
2022/08/22 12:17:45;;;;;;;;;;;;;;;;;;5136495;28;19927;-76
2022/08/22 12:20:11;;;;;;;;;;;;;;;;;;5136089;28;19937;-79
2022/08/22 12:23:14;;;;;;;;;;;;;;;;;;5127334;28;20018;-77
2022/08/22 12:25:45;;;;;;;;;;;;;;;;;;5015512;28;19918;-76
2022/08/22 12:28:29;;;;;;;;;;;;;;;;;;5015559;28;20382;-76
2022/08/22 12:31:09;;;;;;;;;;;;;;;;;;5079151;28;19977;-77
2022/08/22 12:33:51;;;;;;;;;;;;;;;;;;5099530;28;20010;-77
2022/08/22 12:36:23;;;;;;;;;;;;;;;;;;5099577;28;19964;-77
2022/08/22 12:39:23;;;;;;;;;;;;;;;;;;5082629;28;19915;-76
2022/08/22 12:42:07;;;;;;;;;;;;;;;;;;5099823;28;19916;-78
2022/08/22 12:44:51;;;;;;;;;;;;;;;;;;5099753;28;19970;-76
2022/08/22 12:47:23;;;;;;;;;;;;;;;;;;5118263;28;20354;-76
2022/08/22 12:50:14;;;;;;;;;;;;;;;;;;5117743;28;19919;-76
2022/08/22 12:52:43;;;;;;;;;;;;;;;;;;5112739;28;19980;-76
2022/08/22 12:55:08;;;;;;;;;;;;;;;;;;5117762;28;19916;-78
2022/08/22 12:57:39;;;;;;;;;;;;;;;;;;5117773;28;20341;-77
2022/08/22 13:00:26;;;;;;;;;;;;;;;;;;5099536;28;19920;-76
2022/08/22 13:02:52;;;;;;;;;;;;;;;;;;5100055;28;19917;-76
2022/08/22 13:05:22;;;;;;;;;;;;;;;;;;5082712;28;20261;-77
2022/08/22 13:08:07;;;;;;;;;;;;;;;;;;5098970;28;19965;-77
2022/08/22 13:11:02;;;;;;;;;;;;;;;;;;5117196;28;20257;-77
2022/08/22 13:13:29;;;;;;;;;;;;;;;;;;5094880;28;19922;-77
2022/08/22 13:15:56;;;;;;;;;;;;;;;;;;5099088;28;20010;-77
2022/08/22 13:18:24;;;;;;;;;;;;;;;;;;5098537;28;19984;-82
2022/08/22 13:20:50;;;;;;;;;;;;;;;;;;5099703;28;19915;-80
2022/08/22 13:23:17;;;;;;;;;;;;;;;;;;5099288;28;19938;-81
2022/08/22 13:25:54;;;;;;;;;;;;;;;;;;5099479;28;20230;-81
2022/08/22 13:28:19;;;;;;;;;;;;;;;;;;5098848;28;19912;-80
2022/08/22 13:30:44;;;;;;;;;;;;;;;;;;5080547;28;19924;-80
2022/08/22 13:33:12;;;;;;;;;;;;;;;;;;5096955;28;19912;-81
2022/08/22 13:35:40;;;;;;;;;;;;;;;;;;5081107;28;20007;-81
2022/08/22 13:38:10;;;;;;;;;;;;;;;;;;5080930;28;20010;-80
2022/08/22 13:40:36;;;;;;;;;;;;;;;;;;5098285;28;19912;-80
2022/08/22 13:43:03;;;;;;;;;;;;;;;;;;5116046;28;20022;-81
2022/08/22 13:45:28;;;;;;;;;;;;;;;;;;5098222;28;19923;-82
2022/08/22 13:47:58;;;;;;;;;;;;;;;;;;5098391;28;20338;-81
2022/08/22 13:50:24;;;;;;;;;;;;;;;;;;5081767;28;19916;-81
2022/08/22 13:53:08;;;;;;;;;;;;;;;;;;5081310;28;19923;-81
2022/08/22 13:55:44;;;;;;;;;;;;;;;;;;5117029;28;19915;-81
2022/08/22 13:58:18;;;;;;;;;;;;;;;;;;5081597;28;20416;-81
2022/08/22 14:00:52;;;;;;;;;;;;;;;;;;5116102;28;19920;-80
2022/08/22 14:03:20;;;;;;;;;;;;;;;;;;5116384;28;19915;-81
2022/08/22 14:05:50;;;;;;;;;;;;;;;;;;5098010;28;19916;-81
2022/08/22 14:08:16;;;;;;;;;;;;;;;;;;5098267;28;19912;-81
2022/08/22 14:11:01;;;;;;;;;;;;;;;;;;5098117;28;20010;-81
2022/08/22 14:13:30;;;;;;;;;;;;;;;;;;5097896;28;19912;-81
2022/08/22 14:15:59;;;;;;;;;;;;;;;;;;5115874;28;19916;-81
2022/08/22 14:18:26;;;;;;;;;;;;;;;;;;5097806;28;19912;-81
2022/08/22 14:20:52;;;;;;;;;;;;;;;;;;5115971;28;19923;-81
2022/08/22 14:23:23;;;;;;;;;;;;;;;;;;5080730;28;19920;-81
2022/08/22 14:25:49;;;;;;;;;;;;;;;;;;5098112;28;19922;-81
2022/08/22 14:28:23;;;;;;;;;;;;;;;;;;5097658;28;19916;-82
2022/08/22 14:30:48;;;;;;;;;;;;;;;;;;5097982;28;19957;-82
2022/08/22 14:33:16;;;;;;;;;;;;;;;;;;5115672;28;19939;-82
2022/08/22 14:35:43;;;;;;;;;;;;;;;;;;5097617;28;19972;-81
2022/08/22 14:38:20;;;;;;;;;;;;;;;;;;5097546;28;20304;-82
2022/08/22 14:40:46;;;;;;;;;;;;;;;;;;5097544;28;19923;-83
2022/08/22 14:43:16;;;;;;;;;;;;;;;;;;5097295;28;19915;-81
2022/08/22 14:45:44;;;;;;;;;;;;;;;;;;5097582;28;19919;-82
2022/08/22 14:48:26;;;;;;;;;;;;;;;;;;5080684;28;19939;-82
2022/08/22 14:50:56;;;;;;;;;;;;;;;;;;5097684;28;19922;-82
2022/08/22 14:53:26;;;;;;;;;;;;;;;;;;5080276;28;19915;-82
2022/08/22 14:56:00;;;;;;;;;;;;;;;;;;5097397;28;20341;-82
2022/08/22 14:58:26;;;;;;;;;;;;;;;;;;5115047;28;20303;-82
2022/08/22 15:00:51;;;;;;;;;;;;;;;;;;5115106;28;19923;-82
2022/08/22 15:03:32;;;;;;;;;;;;;;;;;;5115127;28;19920;-81
2022/08/22 15:05:59;;;;;;;;;;;;;;;;;;5097101;28;20311;-81
2022/08/22 15:08:30;;;;;;;;;;;;;;;;;;5080393;28;20337;-82
2022/08/22 15:11:09;;;;;;;;;;;;;;;;;;5079942;28;19923;-82
2022/08/22 15:13:35;;;;;;;;;;;;;;;;;;5079973;28;20203;-82
2022/08/22 15:16:00;;;;;;;;;;;;;;;;;;5096888;28;19983;-82
2022/08/22 15:18:29;;;;;;;;;;;;;;;;;;5096574;28;19912;-81
2022/08/22 15:21:02;;;;;;;;;;;;;;;;;;5096716;28;19916;-81
2022/08/22 15:23:27;;;;;;;;;;;;;;;;;;5096850;28;19923;-81
2022/08/22 15:25:55;;;;;;;;;;;;;;;;;;5115114;28;19916;-81
2022/08/22 15:28:21;;;;;;;;;;;;;;;;;;5115045;28;19923;-82
2022/08/22 15:30:46;;;;;;;;;;;;;;;;;;5096757;28;19915;-82
2022/08/22 15:33:21;;;;;;;;;;;;;;;;;;5115120;28;19916;-82
2022/08/22 15:35:46;;;;;;;;;;;;;;;;;;5096525;28;20056;-82
2022/08/22 15:38:26;;;;;;;;;;;;;;;;;;5079884;28;20006;-82
2022/08/22 15:40:51;;;;;;;;;;;;;;;;;;5096760;28;19948;-82
2022/08/22 15:43:23;;;;;;;;;;;;;;;;;;5079616;28;20028;-81
2022/08/22 15:45:49;;;;;;;;;;;;;;;;;;5116757;28;19916;-81
2022/08/22 15:48:26;;;;;;;;;;;;;;;;;;5084020;28;19912;-81
2022/08/22 15:50:57;;;;;;;;;;;;;;;;;;5100894;28;19915;-81
2022/08/22 15:53:23;;;;;;;;;;;;;;;;;;5119300;28;19911;-82
2022/08/22 15:56:18;;;;;;;;;;;;;;;;;;5101120;28;20329;-81
2022/08/22 15:58:45;;;;;;;;;;;;;;;;;;5083268;28;19931;-81
2022/08/22 16:01:10;;;;;;;;;;;;;;;;;;5083748;28;19927;-81
2022/08/22 16:03:37;;;;;;;;;;;;;;;;;;5118654;28;19920;-82
2022/08/22 16:06:06;;;;;;;;;;;;;;;;;;5100676;28;20234;-81
2022/08/22 16:08:35;;;;;;;;;;;;;;;;;;5100522;28;19911;-82
2022/08/22 16:11:00;;;;;;;;;;;;;;;;;;5118524;28;20331;-82
2022/08/22 16:13:25;;;;;;;;;;;;;;;;;;5100581;28;19915;-82
2022/08/22 16:15:57;;;;;;;;;;;;;;;;;;5118520;28;19922;-82
2022/08/22 16:18:45;;;;;;;;;;;;;;;;;;5100749;28;20408;-82
2022/08/22 16:21:20;;;;;;;;;;;;;;;;;;5104692;28;19918;-82
2022/08/22 16:23:52;;;;;;;;;;;;;;;;;;5118563;28;19959;-82
2022/08/22 16:26:18;;;;;;;;;;;;;;;;;;5099690;28;20289;-81
2022/08/22 16:28:53;;;;;;;;;;;;;;;;;;5100214;28;20328;-81
2022/08/22 16:31:21;;;;;;;;;;;;;;;;;;5100415;28;19933;-81
2022/08/22 16:33:47;;;;;;;;;;;;;;;;;;5118271;28;19916;-82
2022/08/22 16:36:31;;;;;;;;;;;;;;;;;;5099954;28;19923;-82
2022/08/22 16:38:56;;;;;;;;;;;;;;;;;;5100127;28;19916;-81
2022/08/22 16:41:29;;;;;;;;;;;;;;;;;;5099697;28;19922;-81
2022/08/22 16:44:14;;;;;;;;;;;;;;;;;;5099766;28;20351;-81
2022/08/22 16:46:41;;;;;;;;;;;;;;;;;;5083024;28;19920;-81
2022/08/22 16:49:06;;;;;;;;;;;;;;;;;;5099746;28;19988;-81
2022/08/22 16:51:31;;;;;;;;;;;;;;;;;;5100237;28;19916;-80
2022/08/22 16:54:07;;;;;;;;;;;;;;;;;;5117637;28;20382;-81
2022/08/22 16:56:44;;;;;;;;;;;;;;;;;;5082299;28;19958;-81
2022/08/22 16:59:36;;;;;;;;;;;;;;;;;;5082822;28;19972;-81
2022/08/22 17:02:18;;;;;;;;;;;;;;;;;;5112430;28;19920;-81
2022/08/22 17:04:48;;;;;;;;;;;;;;;;;;5082530;28;19939;-81
2022/08/22 17:07:18;;;;;;;;;;;;;;;;;;5099223;28;19916;-80
2022/08/22 17:10:02;;;;;;;;;;;;;;;;;;5099001;28;19916;-80
2022/08/22 17:12:28;;;;;;;;;;;;;;;;;;5118042;28;19915;-81
2022/08/22 17:15:11;;;;;;;;;;;;;;;;;;5117723;28;20257;-80
2022/08/22 17:17:50;;;;;;;;;;;;;;;;;;5082466;28;19916;-80
2022/08/22 17:20:18;;;;;;;;;;;;;;;;;;5117358;28;19916;-80
2022/08/22 17:22:58;;;;;;;;;;;;;;;;;;5117231;28;19916;-81
2022/08/22 17:25:34;;;;;;;;;;;;;;;;;;5098870;28;19916;-80
2022/08/22 17:28:19;;;;;;;;;;;;;;;;;;5099129;28;19920;-80